| time (UTC) | temp F | wind direction | speed knots | gust knots | rain 1hr in | rain 24hr in | rain mn in | humidity % | barometer mb |
| 20260906140926 | 85 | 30 | 1.7 | 2.6 | 0.00 | 0.00 | 0.00 | 71 | 1013.5 |
| 20260906140420 | 84 | 14 | 0.9 | 0.9 | 0.00 | 0.00 | 0.00 | 71 | 1013.3 |
| 20260906135919 | 84 | 21 | 0.9 | 0.9 | 0.00 | 0.00 | 0.00 | 71 | 1013.4 |
| 20260906135418 | 85 | 5 | 0.9 | 0.9 | 0.00 | 0.00 | 0.00 | 71 | 1013.5 |
| 20260906134914 | 84 | 45 | 0.9 | 1.7 | 0.00 | 0.00 | 0.00 | 72 | 1013.8 |
| 20260906134409 | 83 | 32 | 0.9 | 0.9 | 0.00 | 0.00 | 0.00 | 74 | 1013.3 |
| 20260906133904 | 84 | 21 | 1.7 | 1.7 | 0.00 | 0.00 | 0.00 | 73 | 1013.6 |
| 20260906133400 | 83 | 18 | 0.0 | 0.9 | 0.00 | 0.00 | 0.00 | 74 | 1013.6 |
| 20260906132855 | 83 | 90 | 1.7 | 2.6 | 0.00 | 0.00 | 0.00 | 74 | 1013.6 |
| 20260906132350 | 82 | 70 | 0.9 | 2.6 | 0.00 | 0.00 | 0.00 | 74 | 1013.4 |
| 20260906131846 | 82 | 31 | 0.9 | 0.9 | 0.00 | 0.00 | 0.00 | 74 | 1013.4 |
| 20260906131341 | 82 | 27 | 0.0 | 0.0 | 0.00 | 0.00 | 0.00 | 74 | 1013.3 |
| 20260906130837 | 82 | 53 | 1.7 | 1.7 | 0.00 | 0.00 | 0.00 | 74 | 1013.3 |
| 20260906130336 | 81 | 43 | 0.9 | 0.9 | 0.00 | 0.00 | 0.00 | 75 | 1013.4 |
| 20260906125835 | 80 | 43 | 0.0 | 0.0 | 0.00 | 0.00 | 0.00 | 78 | 1013.4 |
| 20260906125332 | 79 | 335 | 0.0 | 0.0 | 0.00 | 0.00 | 0.00 | 79 | 1013.2 |
| 20260906124827 | 78 | 335 | 0.0 | 0.0 | 0.00 | 0.00 | 0.00 | 81 | 1013.2 |
| 20260906124324 | 76 | 335 | 0.0 | 0.0 | 0.00 | 0.00 | 0.00 | 85 | 1013.2 |
| 20260906123822 | 75 | 335 | 0.0 | 0.0 | 0.00 | 0.00 | 0.00 | 88 | 1013.1 |
| 20260906123318 | 75 | 335 | 0.0 | 0.0 | 0.00 | 0.00 | 0.00 | 89 | 1013.0 |
| 20260906122817 | 74 | 335 | 0.0 | 0.0 | 0.00 | 0.00 | 0.00 | 90 | 1012.9 |
| 20260906122312 | 74 | 335 | 0.0 | 0.0 | 0.00 | 0.00 | 0.00 | 90 | 1012.8 |
| 20260906121809 | 74 | 335 | 0.0 | 0.0 | 0.00 | 0.00 | 0.00 | 90 | 1012.6 |
| 20260906121305 | 74 | 335 | 0.0 | 0.0 | 0.00 | 0.00 | 0.00 | 89 | 1012.7 |
| 20260906120801 | 74 | 335 | 0.0 | 0.0 | 0.00 | 0.00 | 0.00 | 90 | 1012.5 |
| 20260906120257 | 74 | 335 | 0.0 | 0.0 | 0.00 | 0.00 | 0.00 | 90 | 1012.5 |
| 20260906115753 | 73 | 335 | 0.0 | 0.0 | 0.00 | 0.00 | 0.00 | 91 | 1012.4 |
| 20260906115247 | 73 | 335 | 0.0 | 0.0 | 0.00 | 0.00 | 0.00 | 92 | 1012.2 |
| 20260906114747 | 73 | 335 | 0.0 | 0.0 | 0.00 | 0.00 | 0.00 | 93 | 1012.4 |
| 20260906114242 | 72 | 335 | 0.0 | 0.0 | 0.00 | 0.00 | 0.00 | 93 | 1012.4 |
| 20260906113738 | 73 | 335 | 0.0 | 0.0 | 0.00 | 0.00 | 0.00 | 92 | 1012.2 |
| 20260906113237 | 73 | 335 | 0.0 | 0.0 | 0.00 | 0.00 | 0.00 | 92 | 1012.2 |
| 20260906112736 | 72 | 335 | 0.0 | 0.0 | 0.00 | 0.00 | 0.00 | 93 | 1012.0 |
| 20260906112233 | 72 | 335 | 0.0 | 0.0 | 0.00 | 0.00 | 0.00 | 93 | 1012.1 |
| 20260906111733 | 73 | 335 | 0.0 | 0.0 | 0.00 | 0.00 | 0.00 | 93 | 1012.0 |
| 20260906111227 | 72 | 335 | 0.0 | 0.0 | 0.00 | 0.00 | 0.00 | 93 | 1012.2 |
| 20260906110722 | 72 | 335 | 0.0 | 0.0 | 0.00 | 0.00 | 0.00 | 94 | 1012.1 |
| 20260906110218 | 72 | 335 | 0.0 | 0.0 | 0.00 | 0.00 | 0.00 | 94 | 1012.2 |
| 20260906105717 | 72 | 335 | 0.0 | 0.0 | 0.00 | 0.00 | 0.00 | 93 | 1012.1 |
| 20260906105213 | 73 | 335 | 0.0 | 0.0 | 0.00 | 0.00 | 0.00 | 93 | 1012.1 |
| 20260906104713 | 73 | 335 | 0.0 | 0.0 | 0.00 | 0.00 | 0.00 | 92 | 1011.9 |
| 20260906104212 | 73 | 335 | 0.0 | 0.0 | 0.00 | 0.00 | 0.00 | 92 | 1011.9 |
| 20260906103709 | 73 | 335 | 0.0 | 0.0 | 0.00 | 0.00 | 0.00 | 93 | 1011.9 |
| 20260906103205 | 73 | 335 | 0.0 | 0.0 | 0.00 | 0.00 | 0.00 | 92 | 1011.8 |
| 20260906102700 | 73 | 335 | 0.0 | 0.0 | 0.00 | 0.00 | 0.00 | 92 | 1011.8 |
| 20260906102200 | 73 | 335 | 0.0 | 0.0 | 0.00 | 0.00 | 0.00 | 92 | 1011.8 |
| 20260906101700 | 73 | 335 | 0.0 | 0.0 | 0.00 | 0.00 | 0.00 | 92 | 1011.7 |
| 20260906101155 | 73 | 335 | 0.0 | 0.0 | 0.00 | 0.00 | 0.00 | 92 | 1011.7 |
| 20260906100651 | 74 | 335 | 0.0 | 0.0 | 0.00 | 0.00 | 0.00 | 91 | 1011.5 |
| 20260906100150 | 74 | 335 | 0.0 | 0.0 | 0.00 | 0.00 | 0.00 | 91 | 1011.7 |
| 20260906095645 | 74 | 335 | 0.0 | 0.0 | 0.00 | 0.00 | 0.00 | 90 | 1011.8 |
| 20260906095141 | 74 | 335 | 0.0 | 0.0 | 0.00 | 0.00 | 0.00 | 90 | 1011.4 |
| 20260906094639 | 74 | 335 | 0.0 | 0.0 | 0.00 | 0.00 | 0.00 | 90 | 1011.7 |
| 20260906094136 | 74 | 335 | 0.0 | 0.0 | 0.00 | 0.00 | 0.00 | 90 | 1011.5 |
| 20260906093632 | 74 | 335 | 0.0 | 0.0 | 0.00 | 0.00 | 0.00 | 89 | 1011.7 |
| 20260906093131 | 74 | 335 | 0.0 | 0.0 | 0.00 | 0.00 | 0.00 | 89 | 1011.4 |
| 20260906092627 | 74 | 335 | 0.0 | 0.0 | 0.00 | 0.00 | 0.00 | 89 | 1011.5 |
| 20260906092121 | 75 | 335 | 0.0 | 0.0 | 0.00 | 0.00 | 0.00 | 88 | 1011.5 |
| 20260906091618 | 75 | 335 | 0.0 | 0.0 | 0.00 | 0.00 | 0.00 | 88 | 1011.4 |
| 20260906091114 | 75 | 335 | 0.0 | 0.0 | 0.00 | 0.00 | 0.00 | 87 | 1011.5 |
| 20260906090615 | 75 | 335 | 0.0 | 0.0 | 0.00 | 0.00 | 0.00 | 86 | 1011.3 |
| 20260906090114 | 75 | 335 | 0.0 | 0.0 | 0.00 | 0.00 | 0.00 | 86 | 1011.3 |
| 20260906085614 | 75 | 335 | 0.0 | 0.0 | 0.00 | 0.00 | 0.00 | 86 | 1011.3 |
| 20260906085108 | 76 | 335 | 0.0 | 0.0 | 0.00 | 0.00 | 0.00 | 86 | 1011.5 |
| 20260906084603 | 76 | 335 | 0.0 | 0.0 | 0.00 | 0.00 | 0.00 | 85 | 1011.4 |
| 20260906084101 | 76 | 335 | 0.0 | 0.0 | 0.00 | 0.00 | 0.00 | 84 | 1011.3 |
| 20260906083557 | 77 | 335 | 0.0 | 0.0 | 0.00 | 0.00 | 0.00 | 84 | 1011.4 |
| 20260906083057 | 77 | 335 | 0.0 | 0.0 | 0.00 | 0.00 | 0.00 | 84 | 1011.4 |
| 20260906082552 | 77 | 335 | 0.9 | 0.9 | 0.00 | 0.00 | 0.00 | 82 | 1011.4 |
| 20260906082048 | 77 | 334 | 0.9 | 0.9 | 0.00 | 0.00 | 0.00 | 82 | 1011.3 |
| 20260906081544 | 78 | 335 | 0.0 | 0.0 | 0.00 | 0.00 | 0.00 | 80 | 1011.3 |
| 20260906081039 | 78 | 335 | 0.0 | 0.0 | 0.00 | 0.00 | 0.00 | 81 | 1011.4 |
| 20260906080536 | 78 | 335 | 0.9 | 0.9 | 0.00 | 0.00 | 0.00 | 80 | 1011.3 |
| 20260906080032 | 78 | 335 | 0.9 | 0.9 | 0.00 | 0.00 | 0.00 | 81 | 1011.4 |
| 20260906075531 | 77 | 335 | 1.7 | 1.7 | 0.00 | 0.00 | 0.00 | 83 | 1011.4 |
| 20260906075026 | 76 | 334 | 0.9 | 0.9 | 0.00 | 0.00 | 0.00 | 84 | 1011.4 |
| 20260906074521 | 77 | 335 | 0.9 | 0.9 | 0.00 | 0.00 | 0.00 | 83 | 1011.3 |
| 20260906074019 | 77 | 335 | 0.9 | 0.9 | 0.00 | 0.00 | 0.00 | 83 | 1011.4 |
| 20260906073514 | 77 | 335 | 0.9 | 0.9 | 0.00 | 0.00 | 0.00 | 83 | 1011.3 |
| 20260906073011 | 77 | 335 | 0.0 | 0.0 | 0.00 | 0.00 | 0.00 | 83 | 1011.4 |
| 20260906072505 | 77 | 335 | 0.0 | 0.0 | 0.00 | 0.00 | 0.00 | 83 | 1011.3 |
| 20260906072001 | 77 | 335 | 0.9 | 0.9 | 0.00 | 0.00 | 0.00 | 83 | 1011.4 |
| 20260906071457 | 77 | 335 | 0.0 | 0.0 | 0.00 | 0.00 | 0.00 | 84 | 1011.2 |
| 20260906070952 | 75 | 334 | 1.7 | 1.7 | 0.00 | 0.00 | 0.00 | 86 | 1011.2 |
| 20260906070448 | 76 | 335 | 0.0 | 0.0 | 0.00 | 0.00 | 0.00 | 85 | 1011.3 |
| 20260906065944 | 76 | 335 | 0.9 | 0.0 | 0.00 | 0.00 | 0.00 | 84 | 1011.2 |
| 20260906065443 | 76 | 336 | 0.0 | 0.0 | 0.00 | 0.00 | 0.00 | 85 | 1011.5 |
| 20260906064939 | 76 | 335 | 0.0 | 0.0 | 0.00 | 0.00 | 0.00 | 84 | 1011.5 |
| 20260906064435 | 76 | 335 | 0.0 | 0.0 | 0.00 | 0.00 | 0.00 | 84 | 1011.7 |
| 20260906063930 | 76 | 335 | 0.0 | 0.0 | 0.00 | 0.00 | 0.00 | 84 | 1011.9 |
| 20260906063425 | 77 | 335 | 0.0 | 0.0 | 0.00 | 0.00 | 0.00 | 83 | 1011.7 |
| 20260906062920 | 77 | 335 | 0.0 | 0.0 | 0.00 | 0.00 | 0.00 | 83 | 1011.7 |
| 20260906062421 | 77 | 335 | 0.0 | 0.0 | 0.00 | 0.00 | 0.00 | 83 | 1011.5 |
| 20260906061916 | 77 | 335 | 0.0 | 0.0 | 0.00 | 0.00 | 0.00 | 83 | 1011.5 |
| 20260906061412 | 77 | 335 | 0.0 | 0.0 | 0.00 | 0.00 | 0.00 | 82 | 1011.7 |
| 20260906060906 | 77 | 335 | 0.0 | 0.0 | 0.00 | 0.00 | 0.00 | 82 | 1011.5 |
| 20260906060403 | 77 | 335 | 0.0 | 0.0 | 0.00 | 0.00 | 0.00 | 82 | 1011.8 |
| 20260906055859 | 77 | 335 | 0.0 | 0.0 | 0.00 | 0.00 | 0.00 | 82 | 1011.8 |
| 20260906055355 | 77 | 335 | 0.0 | 0.0 | 0.00 | 0.00 | 0.00 | 82 | 1011.5 |
| 20260906054850 | 77 | 335 | 0.0 | 0.0 | 0.00 | 0.00 | 0.00 | 82 | 1011.9 |
| 20260906054345 | 77 | 335 | 0.9 | 0.9 | 0.00 | 0.00 | 0.00 | 82 | 1011.9 |
| 20260906053841 | 77 | 335 | 0.0 | 0.0 | 0.00 | 0.00 | 0.00 | 82 | 1011.8 |
| 20260906053337 | 77 | 335 | 0.0 | 0.0 | 0.00 | 0.00 | 0.00 | 81 | 1011.7 |
| 20260906052832 | 77 | 335 | 0.9 | 0.9 | 0.00 | 0.00 | 0.00 | 82 | 1012.0 |
| 20260906052328 | 76 | 18 | 0.0 | 0.0 | 0.00 | 0.00 | 0.00 | 83 | 1011.5 |
| 20260906051825 | 76 | 18 | 0.0 | 0.0 | 0.00 | 0.00 | 0.00 | 83 | 1011.7 |
| 20260906051324 | 76 | 18 | 0.0 | 0.0 | 0.00 | 0.00 | 0.00 | 83 | 1011.5 |
| 20260906050820 | 76 | 18 | 0.0 | 0.0 | 0.00 | 0.00 | 0.00 | 84 | 1011.5 |
| 20260906050315 | 76 | 18 | 0.0 | 0.0 | 0.00 | 0.00 | 0.00 | 83 | 1011.4 |
| 20260906045814 | 76 | 18 | 0.0 | 0.0 | 0.00 | 0.00 | 0.00 | 83 | 1011.7 |
| 20260906045308 | 76 | 18 | 0.0 | 0.0 | 0.00 | 0.00 | 0.00 | 82 | 1011.4 |
| 20260906044805 | 77 | 18 | 0.0 | 0.0 | 0.00 | 0.00 | 0.00 | 82 | 1011.5 |
| 20260906044259 | 77 | 18 | 0.0 | 0.0 | 0.00 | 0.00 | 0.00 | 81 | 1011.4 |
| 20260906043755 | 77 | 18 | 0.0 | 0.0 | 0.00 | 0.00 | 0.00 | 80 | 1011.2 |
| 20260906043251 | 77 | 18 | 0.0 | 0.0 | 0.00 | 0.00 | 0.00 | 80 | 1011.1 |
| 20260906042751 | 77 | 18 | 0.0 | 0.0 | 0.00 | 0.00 | 0.00 | 80 | 1011.1 |
| 20260906042250 | 77 | 18 | 0.0 | 0.0 | 0.00 | 0.00 | 0.00 | 80 | 1011.2 |
| 20260906041745 | 77 | 18 | 0.0 | 0.0 | 0.00 | 0.00 | 0.00 | 80 | 1011.4 |
| 20260906041240 | 77 | 18 | 0.0 | 0.0 | 0.00 | 0.00 | 0.00 | 79 | 1011.5 |
| 20260906040736 | 78 | 18 | 0.0 | 0.0 | 0.00 | 0.00 | 0.00 | 79 | 1011.3 |
| 20260906040231 | 78 | 18 | 0.0 | 0.0 | 0.00 | 0.00 | 0.00 | 78 | 1011.2 |
| 20260906035727 | 78 | 18 | 0.0 | 0.0 | 0.00 | 0.00 | 0.00 | 77 | 1011.2 |
| 20260906035223 | 78 | 18 | 0.0 | 0.0 | 0.00 | 0.00 | 0.00 | 77 | 1011.3 |
| 20260906034722 | 78 | 18 | 0.0 | 0.0 | 0.00 | 0.00 | 0.00 | 77 | 1011.3 |
| 20260906034217 | 78 | 18 | 0.0 | 0.0 | 0.00 | 0.00 | 0.00 | 77 | 1011.4 |
| 20260906033713 | 79 | 18 | 0.0 | 0.0 | 0.00 | 0.00 | 0.00 | 76 | 1011.3 |
| 20260906033212 | 79 | 18 | 0.0 | 0.0 | 0.00 | 0.00 | 0.00 | 76 | 1011.3 |
| 20260906032709 | 79 | 18 | 0.0 | 0.0 | 0.00 | 0.00 | 0.00 | 75 | 1011.4 |
| 20260906032209 | 79 | 18 | 0.0 | 0.0 | 0.00 | 0.00 | 0.00 | 75 | 1011.4 |
| 20260906031704 | 79 | 18 | 0.0 | 0.0 | 0.00 | 0.00 | 0.00 | 74 | 1011.4 |
| 20260906031200 | 80 | 18 | 0.0 | 0.0 | 0.00 | 0.00 | 0.00 | 74 | 1011.3 |
| 20260906030659 | 80 | 18 | 0.0 | 0.0 | 0.00 | 0.00 | 0.00 | 74 | 1011.2 |
| 20260906030155 | 80 | 18 | 0.0 | 0.0 | 0.00 | 0.00 | 0.00 | 73 | 1011.2 |
| 20260906025654 | 80 | 18 | 0.0 | 0.0 | 0.00 | 0.00 | 0.00 | 72 | 1011.0 |
| 20260906025154 | 80 | 18 | 0.0 | 0.0 | 0.00 | 0.00 | 0.00 | 73 | 1011.2 |
| 20260906024648 | 80 | 18 | 0.0 | 0.0 | 0.00 | 0.00 | 0.00 | 72 | 1011.3 |
| 20260906024147 | 80 | 18 | 0.0 | 0.0 | 0.00 | 0.00 | 0.00 | 72 | 1011.1 |
| 20260906023644 | 81 | 18 | 0.0 | 0.0 | 0.00 | 0.00 | 0.00 | 71 | 1011.2 |
| 20260906023143 | 81 | 18 | 0.0 | 0.0 | 0.00 | 0.00 | 0.00 | 70 | 1011.3 |
| 20260906022638 | 81 | 18 | 0.9 | 0.0 | 0.00 | 0.00 | 0.00 | 70 | 1011.0 |
| 20260906022134 | 81 | 18 | 0.0 | 0.0 | 0.00 | 0.00 | 0.00 | 70 | 1010.9 |
| 20260906021630 | 82 | 18 | 0.0 | 0.0 | 0.00 | 0.00 | 0.00 | 69 | 1010.9 |
| 20260906021128 | 82 | 18 | 0.0 | 0.0 | 0.00 | 0.00 | 0.00 | 68 | 1010.8 |
| 20260906020623 | 82 | 18 | 0.0 | 0.0 | 0.00 | 0.00 | 0.00 | 68 | 1010.9 |
| 20260906020118 | 82 | 18 | 0.0 | 0.0 | 0.00 | 0.00 | 0.00 | 67 | 1010.7 |
| 20260906015612 | 83 | 18 | 0.0 | 0.0 | 0.00 | 0.00 | 0.00 | 67 | 1010.6 |
| 20260906015111 | 83 | 18 | 0.0 | 0.0 | 0.00 | 0.00 | 0.00 | 66 | 1010.5 |
| 20260906014606 | 83 | 18 | 0.0 | 0.0 | 0.00 | 0.00 | 0.00 | 65 | 1010.3 |
| 20260906014102 | 84 | 18 | 0.0 | 0.0 | 0.00 | 0.00 | 0.00 | 64 | 1010.5 |
| 20260906013557 | 84 | 18 | 0.0 | 0.0 | 0.00 | 0.00 | 0.00 | 64 | 1010.5 |
| 20260906013052 | 84 | 18 | 0.0 | 0.0 | 0.00 | 0.00 | 0.00 | 63 | 1010.4 |
| 20260906012548 | 85 | 18 | 0.0 | 0.0 | 0.00 | 0.00 | 0.00 | 62 | 1010.3 |
| 20260906012047 | 85 | 18 | 0.0 | 0.0 | 0.00 | 0.00 | 0.00 | 60 | 1010.1 |
| 20260906011543 | 86 | 18 | 0.0 | 0.0 | 0.00 | 0.00 | 0.00 | 59 | 1009.9 |
| 20260906011043 | 86 | 18 | 0.0 | 0.0 | 0.00 | 0.00 | 0.00 | 58 | 1010.0 |
| 20260906010538 | 87 | 18 | 0.0 | 0.0 | 0.00 | 0.00 | 0.00 | 57 | 1009.9 |
| 20260906010034 | 87 | 18 | 0.0 | 0.0 | 0.00 | 0.00 | 0.00 | 56 | 1009.8 |
| 20260906005533 | 88 | 18 | 0.0 | 0.0 | 0.00 | 0.00 | 0.00 | 55 | 1009.9 |
| 20260906005033 | 88 | 18 | 0.0 | 0.0 | 0.00 | 0.00 | 0.00 | 55 | 1009.9 |
| 20260906004532 | 89 | 18 | 0.0 | 0.0 | 0.00 | 0.00 | 0.00 | 53 | 1010.0 |
| 20260906004027 | 89 | 18 | 0.0 | 0.0 | 0.00 | 0.00 | 0.00 | 52 | 1010.0 |
| 20260906003522 | 90 | 18 | 0.0 | 0.0 | 0.00 | 0.00 | 0.00 | 52 | 1009.8 |
| 20260906003019 | 90 | 18 | 0.0 | 0.0 | 0.00 | 0.00 | 0.00 | 51 | 1009.8 |
| 20260906002513 | 91 | 18 | 0.0 | 0.0 | 0.00 | 0.00 | 0.00 | 50 | 1009.9 |
| 20260906002008 | 92 | 18 | 0.0 | 0.0 | 0.00 | 0.00 | 0.00 | 48 | 1009.9 |
| 20260906001504 | 92 | 18 | 0.0 | 0.0 | 0.00 | 0.00 | 0.00 | 47 | 1009.9 |
| 20260906000958 | 93 | 18 | 0.0 | 0.0 | 0.00 | 0.00 | 0.00 | 45 | 1009.8 |
| 20260906000455 | 94 | 18 | 0.0 | 0.0 | 0.00 | 0.00 | 0.00 | 44 | 1010.0 |
| 20260905235954 | 94 | 18 | 0.0 | 0.0 | 0.00 | 0.00 | 0.00 | 44 | 1010.0 |
| 20260905235448 | 95 | 18 | 0.0 | 0.0 | 0.00 | 0.00 | 0.00 | 43 | 1009.9 |
| 20260905234943 | 95 | 18 | 0.9 | 0.9 | 0.00 | 0.00 | 0.00 | 42 | 1010.1 |
| 20260905234439 | 95 | 14 | 0.0 | 0.0 | 0.00 | 0.00 | 0.00 | 41 | 1009.8 |
| 20260905233938 | 96 | 19 | 1.7 | 1.7 | 0.00 | 0.00 | 0.00 | 41 | 1010.0 |
| 20260905233434 | 96 | 22 | 1.7 | 2.6 | 0.00 | 0.00 | 0.00 | 40 | 1010.1 |
| 20260905232933 | 97 | 19 | 0.0 | 0.0 | 0.00 | 0.00 | 0.00 | 40 | 1010.1 |
| 20260905232429 | 97 | 34 | 1.7 | 1.7 | 0.00 | 0.00 | 0.00 | 38 | 1010.1 |
| 20260905231924 | 98 | 34 | 1.7 | 1.7 | 0.00 | 0.00 | 0.00 | 37 | 1010.0 |
| 20260905231420 | 98 | 14 | 0.0 | 0.0 | 0.00 | 0.00 | 0.00 | 36 | 1010.1 |
| 20260905230916 | 98 | 29 | 0.9 | 0.9 | 0.00 | 0.00 | 0.00 | 36 | 1010.0 |
| 20260905230414 | 99 | 11 | 0.0 | 0.0 | 0.00 | 0.00 | 0.00 | 35 | 1009.8 |
| 20260905225913 | 99 | 14 | 0.9 | 0.9 | 0.00 | 0.00 | 0.00 | 35 | 1010.0 |
| 20260905225409 | 99 | 49 | 1.7 | 1.7 | 0.00 | 0.00 | 0.00 | 35 | 1010.0 |
| 20260905224903 | 100 | 6 | 0.9 | 0.9 | 0.00 | 0.00 | 0.00 | 34 | 1009.7 |
| 20260905224400 | 100 | 12 | 0.9 | 0.9 | 0.00 | 0.00 | 0.00 | 35 | 1010.1 |
| 20260905223859 | 100 | 14 | 1.7 | 1.7 | 0.00 | 0.00 | 0.00 | 34 | 1009.9 |
| 20260905223358 | 100 | 20 | 1.7 | 0.9 | 0.00 | 0.00 | 0.00 | 34 | 1010.0 |
| 20260905222857 | 100 | 12 | 0.9 | 0.9 | 0.00 | 0.00 | 0.00 | 34 | 1009.7 |
| 20260905222356 | 99 | 15 | 0.9 | 0.9 | 0.00 | 0.00 | 0.00 | 35 | 1009.9 |
| 20260905221853 | 99 | 12 | 0.9 | 0.9 | 0.00 | 0.00 | 0.00 | 35 | 1009.8 |
| 20260905221349 | 100 | 25 | 0.9 | 0.9 | 0.00 | 0.00 | 0.00 | 34 | 1009.8 |
| 20260905220845 | 99 | 16 | 1.7 | 1.7 | 0.00 | 0.00 | 0.00 | 35 | 1009.9 |
| 20260905220341 | 100 | 15 | 0.9 | 0.9 | 0.00 | 0.00 | 0.00 | 35 | 1010.2 |
| 20260905215840 | 100 | 11 | 1.7 | 2.6 | 0.00 | 0.00 | 0.00 | 34 | 1010.1 |
| 20260905215336 | 101 | 29 | 2.6 | 5.2 | 0.00 | 0.00 | 0.00 | 34 | 1010.2 |
| 20260905214832 | 101 | 46 | 3.5 | 5.2 | 0.00 | 0.00 | 0.00 | 34 | 1009.9 |
| 20260905214332 | 99 | 17 | 0.9 | 1.7 | 0.00 | 0.00 | 0.00 | 35 | 1010.3 |
| 20260905213827 | 98 | 5 | 1.7 | 1.7 | 0.00 | 0.00 | 0.00 | 36 | 1010.1 |
| 20260905213324 | 99 | 18 | 1.7 | 1.7 | 0.00 | 0.00 | 0.00 | 35 | 1010.1 |
| 20260905212819 | 102 | 9 | 1.7 | 1.7 | 0.00 | 0.00 | 0.00 | 33 | 1010.0 |
| 20260905212319 | 102 | 0 | 1.7 | 1.7 | 0.00 | 0.00 | 0.00 | 33 | 1010.0 |
| 20260905211818 | 102 | 4 | 0.9 | 0.9 | 0.00 | 0.00 | 0.00 | 32 | 1010.1 |
| 20260905211314 | 102 | 13 | 0.9 | 0.9 | 0.00 | 0.00 | 0.00 | 33 | 1010.1 |
| 20260905210810 | 102 | 14 | 1.7 | 1.7 | 0.00 | 0.00 | 0.00 | 33 | 1010.1 |
| 20260905210310 | 102 | 357 | 1.7 | 2.6 | 0.00 | 0.00 | 0.00 | 34 | 1009.8 |
| 20260905205809 | 100 | 13 | 0.9 | 1.7 | 0.00 | 0.00 | 0.00 | 35 | 1010.3 |
| 20260905205306 | 99 | 27 | 1.7 | 1.7 | 0.00 | 0.00 | 0.00 | 36 | 1010.2 |
| 20260905204803 | 98 | 346 | 0.9 | 1.7 | 0.00 | 0.00 | 0.00 | 38 | 1010.4 |
| 20260905204259 | 97 | 46 | 0.9 | 0.9 | 0.00 | 0.00 | 0.00 | 39 | 1010.5 |
| 20260905203758 | 97 | 28 | 1.7 | 2.6 | 0.00 | 0.00 | 0.00 | 40 | 1010.4 |
| 20260905203253 | 98 | 345 | 3.5 | 3.5 | 0.00 | 0.00 | 0.00 | 39 | 1010.5 |
| 20260905202749 | 98 | 359 | 1.7 | 3.5 | 0.00 | 0.00 | 0.00 | 38 | 1010.5 |
| 20260905202244 | 99 | 0 | 4.3 | 5.2 | 0.00 | 0.00 | 0.00 | 37 | 1010.6 |
| 20260905201739 | 100 | 24 | 1.7 | 1.7 | 0.00 | 0.00 | 0.00 | 35 | 1010.6 |
| 20260905201234 | 100 | 36 | 0.9 | 0.9 | 0.00 | 0.00 | 0.00 | 35 | 1010.6 |
| 20260905200729 | 101 | 19 | 1.7 | 1.7 | 0.00 | 0.00 | 0.00 | 32 | 1010.7 |
| 20260905200225 | 102 | 20 | 0.0 | 0.0 | 0.00 | 0.00 | 0.00 | 32 | 1011.0 |
| 20260905195724 | 102 | 6 | 1.7 | 0.9 | 0.00 | 0.00 | 0.00 | 32 | 1010.8 |
| 20260905195223 | 100 | 359 | 3.5 | 3.5 | 0.00 | 0.00 | 0.00 | 33 | 1010.7 |
| 20260905194720 | 101 | 13 | 0.9 | 0.9 | 0.00 | 0.00 | 0.00 | 33 | 1011.0 |
| 20260905194220 | 100 | 29 | 0.0 | 0.0 | 0.00 | 0.00 | 0.00 | 32 | 1011.0 |
| 20260905193719 | 101 | 89 | 2.6 | 2.6 | 0.00 | 0.00 | 0.00 | 31 | 1011.1 |
| 20260905193214 | 102 | 41 | 0.9 | 0.9 | 0.00 | 0.00 | 0.00 | 31 | 1011.0 |
| 20260905192710 | 103 | 347 | 0.9 | 0.9 | 0.00 | 0.00 | 0.00 | 29 | 1011.2 |
| 20260905192206 | 103 | 347 | 2.6 | 3.5 | 0.00 | 0.00 | 0.00 | 30 | 1011.2 |
| 20260905191705 | 103 | 352 | 3.5 | 3.5 | 0.00 | 0.00 | 0.00 | 30 | 1011.4 |
| 20260905191203 | 102 | 37 | 4.3 | 6.1 | 0.00 | 0.00 | 0.00 | 31 | 1011.3 |
| 20260905190702 | 101 | 334 | 0.9 | 0.9 | 0.00 | 0.00 | 0.00 | 31 | 1011.3 |
| 20260905190201 | 102 | 18 | 0.0 | 0.0 | 0.00 | 0.00 | 0.00 | 32 | 1011.5 |
| 20260905185700 | 100 | 6 | 0.0 | 0.9 | 0.00 | 0.00 | 0.00 | 33 | 1011.4 |
| 20260905185155 | 98 | 15 | 1.7 | 2.6 | 0.00 | 0.00 | 0.00 | 34 | 1011.9 |
| 20260905184654 | 98 | 12 | 0.0 | 0.0 | 0.00 | 0.00 | 0.00 | 35 | 1011.7 |
| 20260905184153 | 98 | 357 | 3.5 | 3.5 | 0.00 | 0.00 | 0.00 | 34 | 1011.9 |
| 20260905183648 | 98 | 342 | 0.0 | 0.0 | 0.00 | 0.00 | 0.00 | 35 | 1011.9 |
| 20260905183143 | 99 | 7 | 1.7 | 1.7 | 0.00 | 0.00 | 0.00 | 34 | 1012.1 |
| 20260905182642 | 100 | 16 | 3.5 | 5.2 | 0.00 | 0.00 | 0.00 | 33 | 1012.1 |
| 20260905182142 | 101 | 24 | 1.7 | 2.6 | 0.00 | 0.00 | 0.00 | 31 | 1012.0 |
| 20260905181638 | 100 | 16 | 3.5 | 3.5 | 0.00 | 0.00 | 0.00 | 32 | 1012.2 |
| 20260905181137 | 100 | 329 | 1.7 | 1.7 | 0.00 | 0.00 | 0.00 | 33 | 1012.1 |
| 20260905180632 | 100 | 336 | 0.9 | 0.9 | 0.00 | 0.00 | 0.00 | 32 | 1012.2 |
| 20260905180127 | 98 | 354 | 1.7 | 2.6 | 0.00 | 0.00 | 0.00 | 34 | 1012.4 |
| 20260905175626 | 100 | 354 | 3.5 | 3.5 | 0.00 | 0.00 | 0.00 | 33 | 1012.3 |
| 20260905175121 | 100 | 315 | 3.5 | 2.6 | 0.00 | 0.00 | 0.00 | 32 | 1012.5 |
| 20260905174617 | 99 | 359 | 0.9 | 0.9 | 0.00 | 0.00 | 0.00 | 35 | 1012.4 |
| 20260905174112 | 100 | 348 | 0.9 | 0.9 | 0.00 | 0.00 | 0.00 | 33 | 1012.4 |
| 20260905173609 | 100 | 352 | 3.5 | 3.5 | 0.00 | 0.00 | 0.00 | 33 | 1012.5 |
| 20260905173104 | 100 | 341 | 3.5 | 5.2 | 0.00 | 0.00 | 0.00 | 33 | 1012.7 |
| 20260905172603 | 100 | 358 | 5.2 | 6.1 | 0.00 | 0.00 | 0.00 | 32 | 1012.6 |
| 20260905172058 | 99 | 3 | 1.7 | 1.7 | 0.00 | 0.00 | 0.00 | 34 | 1012.5 |
| 20260905171554 | 100 | 7 | 2.6 | 3.5 | 0.00 | 0.00 | 0.00 | 34 | 1012.7 |
| 20260905171050 | 101 | 353 | 0.9 | 0.9 | 0.00 | 0.00 | 0.00 | 33 | 1012.7 |
| 20260905170546 | 100 | 123 | 6.1 | 7.0 | 0.00 | 0.00 | 0.00 | 33 | 1012.6 |
| 20260905170041 | 99 | 349 | 0.9 | 0.9 | 0.00 | 0.00 | 0.00 | 35 | 1012.9 |
| 20260905165536 | 99 | 319 | 1.7 | 1.7 | 0.00 | 0.00 | 0.00 | 35 | 1012.9 |
| 20260905165032 | 99 | 1 | 2.6 | 2.6 | 0.00 | 0.00 | 0.00 | 34 | 1013.2 |
| 20260905164532 | 99 | 347 | 3.5 | 5.2 | 0.00 | 0.00 | 0.00 | 35 | 1013.1 |
| 20260905164027 | 99 | 17 | 2.6 | 2.6 | 0.00 | 0.00 | 0.00 | 35 | 1013.0 |
| 20260905163522 | 98 | 352 | 3.5 | 3.5 | 0.00 | 0.00 | 0.00 | 35 | 1012.9 |
| 20260905163018 | 98 | 9 | 6.1 | 7.0 | 0.00 | 0.00 | 0.00 | 35 | 1013.2 |
| 20260905162514 | 98 | 350 | 3.5 | 5.2 | 0.00 | 0.00 | 0.00 | 35 | 1013.2 |
| 20260905162009 | 99 | 350 | 3.5 | 3.5 | 0.00 | 0.00 | 0.00 | 35 | 1013.0 |
| 20260905161508 | 99 | 342 | 0.9 | 0.9 | 0.00 | 0.00 | 0.00 | 36 | 1013.0 |
| 20260905161006 | 98 | 29 | 0.9 | 0.9 | 0.00 | 0.00 | 0.00 | 36 | 1013.2 |
| 20260905160505 | 97 | 345 | 1.7 | 1.7 | 0.00 | 0.00 | 0.00 | 35 | 1013.1 |
| 20260905160006 | 97 | 315 | 3.5 | 3.5 | 0.00 | 0.00 | 0.00 | 35 | 1013.3 |
| 20260905155506 | 96 | 1 | 1.7 | 1.7 | 0.00 | 0.00 | 0.00 | 37 | 1013.2 |
| 20260905155004 | 97 | 352 | 1.7 | 1.7 | 0.00 | 0.00 | 0.00 | 37 | 1013.5 |
| 20260905154459 | 97 | 350 | 2.6 | 2.6 | 0.00 | 0.00 | 0.00 | 38 | 1013.4 |
| 20260905153955 | 96 | 0 | 4.3 | 5.2 | 0.00 | 0.00 | 0.00 | 39 | 1013.5 |
| 20260905153451 | 96 | 328 | 4.3 | 5.2 | 0.00 | 0.00 | 0.00 | 40 | 1013.4 |
| 20260905152951 | 96 | 5 | 2.6 | 3.5 | 0.00 | 0.00 | 0.00 | 40 | 1013.3 |
| 20260905152450 | 95 | 4 | 5.2 | 6.1 | 0.00 | 0.00 | 0.00 | 41 | 1013.3 |
| 20260905151946 | 95 | 359 | 3.5 | 5.2 | 0.00 | 0.00 | 0.00 | 42 | 1013.5 |
| 20260905151441 | 94 | 338 | 2.6 | 3.5 | 0.00 | 0.00 | 0.00 | 43 | 1013.5 |
| 20260905150936 | 94 | 327 | 3.5 | 5.2 | 0.00 | 0.00 | 0.00 | 44 | 1013.2 |
| 20260905150436 | 94 | 338 | 7.0 | 7.8 | 0.00 | 0.00 | 0.00 | 43 | 1013.3 |
| 20260905145933 | 94 | 28 | 1.7 | 0.9 | 0.00 | 0.00 | 0.00 | 45 | 1013.3 |
| 20260905145433 | 93 | 356 | 0.9 | 1.7 | 0.00 | 0.00 | 0.00 | 45 | 1013.4 |
| 20260905144932 | 94 | 349 | 1.7 | 1.7 | 0.00 | 0.00 | 0.00 | 46 | 1013.3 |
| 20260905144428 | 93 | 357 | 1.7 | 2.6 | 0.00 | 0.00 | 0.00 | 47 | 1013.5 |
| 20260905143927 | 92 | 358 | 2.6 | 3.5 | 0.00 | 0.00 | 0.00 | 48 | 1013.4 |
| 20260905143426 | 93 | 322 | 2.6 | 3.5 | 0.00 | 0.00 | 0.00 | 47 | 1013.2 |
| 20260905142927 | 92 | 357 | 0.9 | 0.9 | 0.00 | 0.00 | 0.00 | 49 | 1013.3 |
| 20260905142426 | 91 | 346 | 3.5 | 3.5 | 0.00 | 0.00 | 0.00 | 49 | 1013.4 |
| 20260905141921 | 91 | 344 | 0.9 | 0.9 | 0.00 | 0.00 | 0.00 | 51 | 1013.5 |
| 20260905141416 | 91 | 359 | 0.9 | 0.9 | 0.00 | 0.00 | 0.00 | 52 | 1013.4 |